sensor_id;sensor_type;location;lat;lon;timestamp;pressure;altitude;pressure_sealevel;temperature;humidity
64602;BME280;68371;42.630;23.192;2023-06-26T00:01:55;92245.16;;;19.70;92.46
64602;BME280;68371;42.630;23.192;2023-06-26T00:04:23;92250.63;;;19.55;91.12
64602;BME280;68371;42.630;23.192;2023-06-26T00:06:49;92245.72;;;19.50;91.87
64602;BME280;68371;42.630;23.192;2023-06-26T00:09:16;92243.16;;;19.39;91.96
64602;BME280;68371;42.630;23.192;2023-06-26T00:11:43;92245.97;;;19.21;92.82
64602;BME280;68371;42.630;23.192;2023-06-26T00:14:10;92237.63;;;19.16;92.79
64602;BME280;68371;42.630;23.192;2023-06-26T00:16:37;92247.13;;;19.20;93.52
64602;BME280;68371;42.630;23.192;2023-06-26T00:19:03;92233.50;;;19.08;92.69
64602;BME280;68371;42.630;23.192;2023-06-26T00:21:31;92241.47;;;19.11;93.69
64602;BME280;68371;42.630;23.192;2023-06-26T00:23:58;92252.09;;;19.15;94.01
64602;BME280;68371;42.630;23.192;2023-06-26T00:26:25;92245.69;;;19.09;93.46
64602;BME280;68371;42.630;23.192;2023-06-26T00:28:51;92241.59;;;18.93;94.47
64602;BME280;68371;42.630;23.192;2023-06-26T00:31:18;92231.31;;;18.95;94.28
64602;BME280;68371;42.630;23.192;2023-06-26T00:33:45;92247.91;;;19.14;95.32
64602;BME280;68371;42.630;23.192;2023-06-26T00:36:12;92235.38;;;19.14;94.17
64602;BME280;68371;42.630;23.192;2023-06-26T00:38:41;92241.19;;;19.02;94.55
64602;BME280;68371;42.630;23.192;2023-06-26T00:41:07;92239.69;;;18.97;94.75
64602;BME280;68371;42.630;23.192;2023-06-26T00:43:38;92237.47;;;18.85;95.67
64602;BME280;68371;42.630;23.192;2023-06-26T00:46:09;92235.91;;;18.91;95.38
64602;BME280;68371;42.630;23.192;2023-06-26T00:48:36;92229.50;;;18.81;96.17
64602;BME280;68371;42.630;23.192;2023-06-26T00:51:03;92231.69;;;18.97;96.01
64602;BME280;68371;42.630;23.192;2023-06-26T00:53:30;92226.72;;;18.99;95.00
64602;BME280;68371;42.630;23.192;2023-06-26T00:55:59;92224.03;;;19.03;95.13
64602;BME280;68371;42.630;23.192;2023-06-26T00:58:26;92211.53;;;19.00;95.21
64602;BME280;68371;42.630;23.192;2023-06-26T01:00:53;92224.31;;;19.16;95.23
64602;BME280;68371;42.630;23.192;2023-06-26T01:03:20;92231.19;;;19.17;94.98
64602;BME280;68371;42.630;23.192;2023-06-26T01:05:48;92183.81;;;18.94;94.10
64602;BME280;68371;42.630;23.192;2023-06-26T01:08:16;92226.22;;;19.15;94.83
64602;BME280;68371;42.630;23.192;2023-06-26T01:10:43;92225.94;;;19.06;95.84
64602;BME280;68371;42.630;23.192;2023-06-26T01:13:12;92221.72;;;19.12;94.83
64602;BME280;68371;42.630;23.192;2023-06-26T01:15:40;92213.75;;;19.09;95.12
64602;BME280;68371;42.630;23.192;2023-06-26T01:18:08;92214.84;;;19.15;94.74
64602;BME280;68371;42.630;23.192;2023-06-26T01:20:36;92207.97;;;19.14;94.79
64602;BME280;68371;42.630;23.192;2023-06-26T01:23:14;92209.97;;;19.06;93.68
64602;BME280;68371;42.630;23.192;2023-06-26T01:25:53;92205.06;;;19.01;94.23
64602;BME280;68371;42.630;23.192;2023-06-26T01:28:24;92203.13;;;19.05;94.05
64602;BME280;68371;42.630;23.192;2023-06-26T01:30:52;92189.47;;;18.99;94.01
64602;BME280;68371;42.630;23.192;2023-06-26T01:33:20;92184.88;;;19.04;92.99
64602;BME280;68371;42.630;23.192;2023-06-26T01:35:46;92183.00;;;19.00;91.64
64602;BME280;68371;42.630;23.192;2023-06-26T01:38:16;92184.81;;;19.11;92.38
64602;BME280;68371;42.630;23.192;2023-06-26T01:40:43;92191.72;;;19.05;92.93
64602;BME280;68371;42.630;23.192;2023-06-26T01:43:16;92194.72;;;19.10;93.20
64602;BME280;68371;42.630;23.192;2023-06-26T01:45:49;92197.78;;;19.05;93.37
64602;BME280;68371;42.630;23.192;2023-06-26T01:48:19;92195.13;;;19.05;93.68
64602;BME280;68371;42.630;23.192;2023-06-26T01:50:51;92197.78;;;19.09;94.26
64602;BME280;68371;42.630;23.192;2023-06-26T01:53:21;92193.22;;;19.06;94.91
64602;BME280;68371;42.630;23.192;2023-06-26T01:55:53;92195.47;;;19.11;95.02
64602;BME280;68371;42.630;23.192;2023-06-26T01:58:24;92193.56;;;19.11;94.85
64602;BME280;68371;42.630;23.192;2023-06-26T02:00:53;92191.25;;;19.13;95.07
64602;BME280;68371;42.630;23.192;2023-06-26T02:03:21;92190.50;;;19.13;95.38
64602;BME280;68371;42.630;23.192;2023-06-26T02:05:49;92191.66;;;19.12;95.16
64602;BME280;68371;42.630;23.192;2023-06-26T02:08:16;92196.56;;;19.17;94.56
64602;BME280;68371;42.630;23.192;2023-06-26T02:10:43;92186.31;;;19.12;95.51
64602;BME280;68371;42.630;23.192;2023-06-26T02:13:10;92196.69;;;19.02;95.45
64602;BME280;68371;42.630;23.192;2023-06-26T02:15:36;92191.00;;;19.00;95.37
64602;BME280;68371;42.630;23.192;2023-06-26T02:18:04;92192.56;;;18.94;95.75
64602;BME280;68371;42.630;23.192;2023-06-26T02:20:31;92186.59;;;18.76;95.49
64602;BME280;68371;42.630;23.192;2023-06-26T02:22:58;92182.38;;;18.78;95.01
64602;BME280;68371;42.630;23.192;2023-06-26T02:25:25;92177.81;;;18.83;95.17
64602;BME280;68371;42.630;23.192;2023-06-26T02:27:52;92190.00;;;18.76;95.36
64602;BME280;68371;42.630;23.192;2023-06-26T02:30:20;92182.38;;;18.78;95.98
64602;BME280;68371;42.630;23.192;2023-06-26T02:32:47;92185.44;;;18.77;95.72
64602;BME280;68371;42.630;23.192;2023-06-26T02:35:15;92186.25;;;18.67;96.00
64602;BME280;68371;42.630;23.192;2023-06-26T02:37:42;92187.41;;;18.66;95.39
64602;BME280;68371;42.630;23.192;2023-06-26T02:40:09;92187.06;;;18.64;96.38
64602;BME280;68371;42.630;23.192;2023-06-26T02:42:37;92182.06;;;18.69;95.05
64602;BME280;68371;42.630;23.192;2023-06-26T02:45:04;92182.84;;;18.66;95.12
64602;BME280;68371;42.630;23.192;2023-06-26T02:47:32;92183.22;;;18.65;95.72
64602;BME280;68371;42.630;23.192;2023-06-26T02:49:59;92178.63;;;18.69;95.23
64602;BME280;68371;42.630;23.192;2023-06-26T02:52:27;92188.91;;;18.67;95.29
64602;BME280;68371;42.630;23.192;2023-06-26T02:54:54;92182.47;;;18.64;93.84
64602;BME280;68371;42.630;23.192;2023-06-26T02:57:20;92181.00;;;18.59;92.08
64602;BME280;68371;42.630;23.192;2023-06-26T02:59:47;92184.03;;;18.58;92.93
64602;BME280;68371;42.630;23.192;2023-06-26T03:02:13;92177.59;;;18.55;93.26
64602;BME280;68371;42.630;23.192;2023-06-26T03:04:40;92189.38;;;18.58;94.15
64602;BME280;68371;42.630;23.192;2023-06-26T03:07:08;92188.63;;;18.57;93.93
64602;BME280;68371;42.630;23.192;2023-06-26T03:09:36;92190.56;;;18.50;94.57
64602;BME280;68371;42.630;23.192;2023-06-26T03:12:03;92198.53;;;18.50;94.55
64602;BME280;68371;42.630;23.192;2023-06-26T03:14:30;92195.88;;;18.46;94.72
64602;BME280;68371;42.630;23.192;2023-06-26T03:16:57;92197.00;;;18.49;92.81
64602;BME280;68371;42.630;23.192;2023-06-26T03:19:25;92197.06;;;18.41;92.52
64602;BME280;68371;42.630;23.192;2023-06-26T03:21:51;92191.03;;;18.34;92.79
64602;BME280;68371;42.630;23.192;2023-06-26T03:24:18;92190.28;;;18.26;93.46
64602;BME280;68371;42.630;23.192;2023-06-26T03:26:46;92194.47;;;18.27;94.48
64602;BME280;68371;42.630;23.192;2023-06-26T03:29:13;92192.53;;;18.35;93.92
64602;BME280;68371;42.630;23.192;2023-06-26T03:31:40;92200.47;;;18.42;94.15
64602;BME280;68371;42.630;23.192;2023-06-26T03:34:06;92203.13;;;18.38;94.44
64602;BME280;68371;42.630;23.192;2023-06-26T03:36:33;92201.31;;;18.25;94.66
64602;BME280;68371;42.630;23.192;2023-06-26T03:39:00;92208.59;;;18.17;94.73
64602;BME280;68371;42.630;23.192;2023-06-26T03:41:29;92206.25;;;18.22;94.21
64602;BME280;68371;42.630;23.192;2023-06-26T03:43:57;92203.72;;;18.01;95.68
64602;BME280;68371;42.630;23.192;2023-06-26T03:46:26;92199.88;;;18.02;95.91
64602;BME280;68371;42.630;23.192;2023-06-26T03:48:53;92193.38;;;18.21;95.87
64602;BME280;68371;42.630;23.192;2023-06-26T03:51:22;92202.91;;;18.08;95.28
64602;BME280;68371;42.630;23.192;2023-06-26T03:53:48;92202.53;;;18.13;95.52
64602;BME280;68371;42.630;23.192;2023-06-26T03:56:15;92191.16;;;18.05;95.35
64602;BME280;68371;42.630;23.192;2023-06-26T03:58:42;92196.41;;;18.19;95.80
64602;BME280;68371;42.630;23.192;2023-06-26T04:01:10;92185.03;;;18.12;93.42
64602;BME280;68371;42.630;23.192;2023-06-26T04:03:36;92187.31;;;18.13;94.24
64602;BME280;68371;42.630;23.192;2023-06-26T04:06:03;92188.00;;;18.28;94.71
64602;BME280;68371;42.630;23.192;2023-06-26T04:08:30;92196.31;;;18.41;94.23
64602;BME280;68371;42.630;23.192;2023-06-26T04:10:57;92200.91;;;18.30;93.81
64602;BME280;68371;42.630;23.192;2023-06-26T04:13:24;92199.28;;;18.47;93.59
64602;BME280;68371;42.630;23.192;2023-06-26T04:15:51;92203.94;;;18.35;94.89
64602;BME280;68371;42.630;23.192;2023-06-26T04:18:19;92202.81;;;18.29;94.76
64602;BME280;68371;42.630;23.192;2023-06-26T04:21:05;92204.31;;;18.34;95.87
64602;BME280;68371;42.630;23.192;2023-06-26T04:23:32;92197.44;;;18.44;94.73
64602;BME280;68371;42.630;23.192;2023-06-26T04:25:59;92206.13;;;18.48;95.07
64602;BME280;68371;42.630;23.192;2023-06-26T04:28:25;92212.22;;;18.48;95.48
64602;BME280;68371;42.630;23.192;2023-06-26T04:30:52;92209.16;;;18.50;96.34
64602;BME280;68371;42.630;23.192;2023-06-26T04:33:21;92206.13;;;18.51;93.52
64602;BME280;68371;42.630;23.192;2023-06-26T04:35:48;92209.97;;;18.43;94.85
64602;BME280;68371;42.630;23.192;2023-06-26T04:38:15;92208.38;;;18.53;94.23
64602;BME280;68371;42.630;23.192;2023-06-26T04:40:42;92206.50;;;18.50;95.58
64602;BME280;68371;42.630;23.192;2023-06-26T04:43:08;92209.53;;;18.52;94.70
64602;BME280;68371;42.630;23.192;2023-06-26T04:45:35;92209.84;;;18.61;95.71
64602;BME280;68371;42.630;23.192;2023-06-26T04:48:02;92212.13;;;18.66;94.01
64602;BME280;68371;42.630;23.192;2023-06-26T04:50:31;92209.38;;;18.73;93.06
64602;BME280;68371;42.630;23.192;2023-06-26T04:52:59;92208.63;;;18.76;92.49
64602;BME280;68371;42.630;23.192;2023-06-26T04:55:26;92212.81;;;18.74;92.64
64602;BME280;68371;42.630;23.192;2023-06-26T04:57:53;92214.69;;;18.77;92.52
64602;BME280;68371;42.630;23.192;2023-06-26T05:00:20;92210.94;;;18.67;92.35
64602;BME280;68371;42.630;23.192;2023-06-26T05:02:47;92212.41;;;18.83;92.18
64602;BME280;68371;42.630;23.192;2023-06-26T05:05:14;92217.72;;;18.83;93.54
64602;BME280;68371;42.630;23.192;2023-06-26T05:07:42;92209.72;;;18.90;93.71
64602;BME280;68371;42.630;23.192;2023-06-26T05:10:09;92217.25;;;18.98;93.43
64602;BME280;68371;42.630;23.192;2023-06-26T05:12:36;92218.31;;;19.08;93.29
64602;BME280;68371;42.630;23.192;2023-06-26T05:15:03;92225.47;;;19.15;94.50
64602;BME280;68371;42.630;23.192;2023-06-26T05:17:31;92219.78;;;19.16;93.50
64602;BME280;68371;42.630;23.192;2023-06-26T05:19:58;92222.34;;;19.27;92.82
64602;BME280;68371;42.630;23.192;2023-06-26T05:22:25;92228.34;;;19.38;91.88
64602;BME280;68371;42.630;23.192;2023-06-26T05:24:54;92224.03;;;19.48;91.58
64602;BME280;68371;42.630;23.192;2023-06-26T05:27:22;92225.91;;;19.55;89.50
64602;BME280;68371;42.630;23.192;2023-06-26T05:29:49;92225.47;;;19.60;91.94
64602;BME280;68371;42.630;23.192;2023-06-26T05:32:17;92176.34;;;19.23;90.97
64602;BME280;68371;42.630;23.192;2023-06-26T05:34:45;92224.13;;;19.41;91.03
64602;BME280;68371;42.630;23.192;2023-06-26T05:37:14;92226.44;;;19.35;90.76
64602;BME280;68371;42.630;23.192;2023-06-26T05:39:45;92218.94;;;19.27;90.50
64602;BME280;68371;42.630;23.192;2023-06-26T05:42:15;92235.97;;;19.36;88.61
64602;BME280;68371;42.630;23.192;2023-06-26T05:44:42;92228.72;;;19.37;88.01
64602;BME280;68371;42.630;23.192;2023-06-26T05:47:08;92230.53;;;19.47;88.97
64602;BME280;68371;42.630;23.192;2023-06-26T05:49:35;92228.22;;;19.53;89.90
64602;BME280;68371;42.630;23.192;2023-06-26T05:52:03;92230.94;;;19.46;88.57
64602;BME280;68371;42.630;23.192;2023-06-26T05:54:30;92229.72;;;19.54;88.82
64602;BME280;68371;42.630;23.192;2023-06-26T05:56:57;92239.91;;;19.62;89.07
64602;BME280;68371;42.630;23.192;2023-06-26T05:59:26;92236.06;;;19.71;88.20
64602;BME280;68371;42.630;23.192;2023-06-26T06:01:53;92239.13;;;19.66;87.80
64602;BME280;68371;42.630;23.192;2023-06-26T06:04:20;92245.69;;;19.54;87.71
64602;BME280;68371;42.630;23.192;2023-06-26T06:06:47;92241.13;;;19.54;88.31
64602;BME280;68371;42.630;23.192;2023-06-26T06:09:13;92239.91;;;19.62;89.26
64602;BME280;68371;42.630;23.192;2023-06-26T06:11:40;92237.69;;;19.57;88.17
64602;BME280;68371;42.630;23.192;2023-06-26T06:14:07;92242.91;;;19.72;88.50
64602;BME280;68371;42.630;23.192;2023-06-26T06:16:35;92243.22;;;19.77;87.82
64602;BME280;68371;42.630;23.192;2023-06-26T06:19:03;92247.75;;;19.80;88.86
64602;BME280;68371;42.630;23.192;2023-06-26T06:21:32;92244.66;;;19.86;88.75
64602;BME280;68371;42.630;23.192;2023-06-26T06:23:58;92245.00;;;19.91;87.08
64602;BME280;68371;42.630;23.192;2023-06-26T06:26:26;92234.94;;;20.06;85.49
64602;BME280;68371;42.630;23.192;2023-06-26T06:28:53;92241.88;;;19.96;85.78
64602;BME280;68371;42.630;23.192;2023-06-26T06:31:19;92240.63;;;20.08;84.53
64602;BME280;68371;42.630;23.192;2023-06-26T06:33:47;92228.56;;;20.27;84.67
64602;BME280;68371;42.630;23.192;2023-06-26T06:36:14;92233.19;;;20.23;84.81
64602;BME280;68371;42.630;23.192;2023-06-26T06:38:42;92232.31;;;20.33;84.34
64602;BME280;68371;42.630;23.192;2023-06-26T06:41:10;92216.44;;;20.23;83.55
64602;BME280;68371;42.630;23.192;2023-06-26T06:43:37;92225.13;;;20.30;82.54
64602;BME280;68371;42.630;23.192;2023-06-26T06:46:04;92228.03;;;20.39;84.71
64602;BME280;68371;42.630;23.192;2023-06-26T06:48:31;92231.78;;;20.46;82.18
64602;BME280;68371;42.630;23.192;2023-06-26T06:51:00;92231.31;;;20.54;83.52
64602;BME280;68371;42.630;23.192;2023-06-26T06:53:27;92231.94;;;20.66;84.71
64602;BME280;68371;42.630;23.192;2023-06-26T06:55:54;92221.69;;;20.64;84.87
64602;BME280;68371;42.630;23.192;2023-06-26T06:58:20;92238.03;;;20.93;83.54
64602;BME280;68371;42.630;23.192;2023-06-26T07:00:48;92229.94;;;21.00;83.97
64602;BME280;68371;42.630;23.192;2023-06-26T07:03:16;92223.06;;;20.99;82.91
64602;BME280;68371;42.630;23.192;2023-06-26T07:05:43;92225.38;;;20.97;83.66
64602;BME280;68371;42.630;23.192;2023-06-26T07:08:11;92219.78;;;20.88;81.88
64602;BME280;68371;42.630;23.192;2023-06-26T07:10:38;92225.59;;;20.83;81.75
64602;BME280;68371;42.630;23.192;2023-06-26T07:13:05;92229.13;;;20.76;81.45
64602;BME280;68371;42.630;23.192;2023-06-26T07:15:32;92227.94;;;20.50;81.04
64602;BME280;68371;42.630;23.192;2023-06-26T07:17:58;92231.47;;;20.40;83.13
64602;BME280;68371;42.630;23.192;2023-06-26T07:20:25;92234.00;;;20.51;83.91
64602;BME280;68371;42.630;23.192;2023-06-26T07:22:52;92230.59;;;20.50;83.03
64602;BME280;68371;42.630;23.192;2023-06-26T07:25:21;92220.19;;;20.56;83.17
64602;BME280;68371;42.630;23.192;2023-06-26T07:27:47;92222.84;;;20.59;81.49
64602;BME280;68371;42.630;23.192;2023-06-26T07:30:14;92224.41;;;20.57;80.85
64602;BME280;68371;42.630;23.192;2023-06-26T07:32:41;92217.03;;;20.68;80.55
64602;BME280;68371;42.630;23.192;2023-06-26T07:35:08;92223.56;;;20.64;81.98
64602;BME280;68371;42.630;23.192;2023-06-26T07:37:35;92221.13;;;20.76;80.21
64602;BME280;68371;42.630;23.192;2023-06-26T07:40:01;92217.25;;;20.81;81.15
64602;BME280;68371;42.630;23.192;2023-06-26T07:42:30;92226.59;;;20.93;80.12
64602;BME280;68371;42.630;23.192;2023-06-26T07:44:56;92206.75;;;20.94;80.79
64602;BME280;68371;42.630;23.192;2023-06-26T07:47:23;92228.09;;;21.21;79.45
64602;BME280;68371;42.630;23.192;2023-06-26T07:49:50;92231.47;;;21.25;78.37
64602;BME280;68371;42.630;23.192;2023-06-26T07:52:17;92233.78;;;21.23;78.48
64602;BME280;68371;42.630;23.192;2023-06-26T07:54:44;92234.63;;;21.16;77.62
64602;BME280;68371;42.630;23.192;2023-06-26T07:57:11;92240.50;;;21.08;78.81
64602;BME280;68371;42.630;23.192;2023-06-26T07:59:39;92234.25;;;20.91;76.90
64602;BME280;68371;42.630;23.192;2023-06-26T08:02:06;92236.25;;;21.10;78.79
64602;BME280;68371;42.630;23.192;2023-06-26T08:04:33;92227.66;;;21.23;82.11
64602;BME280;68371;42.630;23.192;2023-06-26T08:07:01;92234.81;;;21.29;79.80
64602;BME280;68371;42.630;23.192;2023-06-26T08:09:29;92231.94;;;21.44;77.33
64602;BME280;68371;42.630;23.192;2023-06-26T08:11:56;92235.25;;;21.51;77.55
64602;BME280;68371;42.630;23.192;2023-06-26T08:14:23;92233.06;;;21.46;76.50
64602;BME280;68371;42.630;23.192;2023-06-26T08:16:52;92234.25;;;21.41;75.50
64602;BME280;68371;42.630;23.192;2023-06-26T08:19:19;92221.13;;;21.51;78.53
64602;BME280;68371;42.630;23.192;2023-06-26T08:21:46;92231.13;;;21.70;76.06
64602;BME280;68371;42.630;23.192;2023-06-26T08:24:13;92227.56;;;21.77;76.52
64602;BME280;68371;42.630;23.192;2023-06-26T08:26:41;92233.19;;;21.83;74.90
64602;BME280;68371;42.630;23.192;2023-06-26T08:29:08;92229.50;;;21.96;79.87
64602;BME280;68371;42.630;23.192;2023-06-26T08:31:35;92230.88;;;22.05;75.55
64602;BME280;68371;42.630;23.192;2023-06-26T08:34:05;92229.28;;;22.07;73.94
64602;BME280;68371;42.630;23.192;2023-06-26T08:36:32;92231.28;;;22.23;71.95
64602;BME280;68371;42.630;23.192;2023-06-26T08:38:58;92219.91;;;22.19;70.39
64602;BME280;68371;42.630;23.192;2023-06-26T08:41:25;92229.75;;;22.22;72.39
64602;BME280;68371;42.630;23.192;2023-06-26T08:43:52;92225.47;;;22.08;72.23
64602;BME280;68371;42.630;23.192;2023-06-26T08:46:19;92222.50;;;21.83;73.46
64602;BME280;68371;42.630;23.192;2023-06-26T08:48:49;92226.06;;;21.76;73.42
64602;BME280;68371;42.630;23.192;2023-06-26T08:51:19;92224.47;;;21.78;74.72
64602;BME280;68371;42.630;23.192;2023-06-26T08:53:50;92226.78;;;22.00;71.16
64602;BME280;68371;42.630;23.192;2023-06-26T08:56:19;92220.38;;;22.14;67.93
64602;BME280;68371;42.630;23.192;2023-06-26T08:58:47;92220.97;;;22.25;67.65
64602;BME280;68371;42.630;23.192;2023-06-26T09:01:14;92221.22;;;22.31;69.29
64602;BME280;68371;42.630;23.192;2023-06-26T09:03:42;92220.66;;;22.39;65.15
64602;BME280;68371;42.630;23.192;2023-06-26T09:06:09;92225.13;;;22.46;66.35
64602;BME280;68371;42.630;23.192;2023-06-26T09:08:38;92224.44;;;22.42;66.30
64602;BME280;68371;42.630;23.192;2023-06-26T09:11:05;92228.81;;;22.52;68.38
64602;BME280;68371;42.630;23.192;2023-06-26T09:13:32;92217.81;;;22.67;66.75
64602;BME280;68371;42.630;23.192;2023-06-26T09:15:59;92232.19;;;22.73;63.77
64602;BME280;68371;42.630;23.192;2023-06-26T09:18:31;92228.69;;;22.59;66.78
64602;BME280;68371;42.630;23.192;2023-06-26T09:20:59;92240.63;;;22.55;66.96
64602;BME280;68371;42.630;23.192;2023-06-26T09:23:26;92232.91;;;22.40;67.77
64602;BME280;68371;42.630;23.192;2023-06-26T09:25:54;92227.09;;;22.42;65.80
64602;BME280;68371;42.630;23.192;2023-06-26T09:28:21;92231.72;;;22.42;67.23
64602;BME280;68371;42.630;23.192;2023-06-26T09:30:48;92228.28;;;22.41;69.61
64602;BME280;68371;42.630;23.192;2023-06-26T09:33:17;92226.47;;;22.54;68.36
64602;BME280;68371;42.630;23.192;2023-06-26T09:35:45;92225.50;;;22.65;67.75
64602;BME280;68371;42.630;23.192;2023-06-26T09:38:12;92223.41;;;22.72;64.39
64602;BME280;68371;42.630;23.192;2023-06-26T09:40:40;92202.31;;;22.58;65.62
64602;BME280;68371;42.630;23.192;2023-06-26T09:43:09;92229.03;;;22.78;67.46
64602;BME280;68371;42.630;23.192;2023-06-26T09:45:39;92216.19;;;22.89;63.11
64602;BME280;68371;42.630;23.192;2023-06-26T09:48:07;92223.28;;;22.79;64.41
64602;BME280;68371;42.630;23.192;2023-06-26T09:50:34;92229.56;;;22.89;66.86
64602;BME280;68371;42.630;23.192;2023-06-26T09:53:07;92221.00;;;22.78;62.94
64602;BME280;68371;42.630;23.192;2023-06-26T09:55:35;92225.56;;;22.97;66.40
64602;BME280;68371;42.630;23.192;2023-06-26T09:58:03;92227.34;;;23.04;66.25
64602;BME280;68371;42.630;23.192;2023-06-26T10:00:31;92230.53;;;23.15;68.96
64602;BME280;68371;42.630;23.192;2023-06-26T10:02:58;92219.06;;;23.15;66.68
64602;BME280;68371;42.630;23.192;2023-06-26T10:05:25;92223.84;;;23.40;61.60
64602;BME280;68371;42.630;23.192;2023-06-26T10:07:52;92226.69;;;23.33;64.68
64602;BME280;68371;42.630;23.192;2023-06-26T10:10:22;92232.38;;;23.35;61.69
64602;BME280;68371;42.630;23.192;2023-06-26T10:12:54;92231.97;;;23.36;61.66
64602;BME280;68371;42.630;23.192;2023-06-26T10:15:26;92222.44;;;22.99;60.98
64602;BME280;68371;42.630;23.192;2023-06-26T10:17:56;92220.25;;;23.14;63.55
64602;BME280;68371;42.630;23.192;2023-06-26T10:20:24;92221.41;;;23.29;63.09
64602;BME280;68371;42.630;23.192;2023-06-26T10:22:51;92217.94;;;23.62;59.52
64602;BME280;68371;42.630;23.192;2023-06-26T10:25:21;92217.34;;;23.70;63.82
64602;BME280;68371;42.630;23.192;2023-06-26T10:27:53;92209.81;;;23.82;59.96
64602;BME280;68371;42.630;23.192;2023-06-26T10:30:23;92223.50;;;24.00;61.78
64602;BME280;68371;42.630;23.192;2023-06-26T10:32:52;92217.41;;;24.12;60.22
64602;BME280;68371;42.630;23.192;2023-06-26T10:35:21;92215.78;;;24.02;61.45
64602;BME280;68371;42.630;23.192;2023-06-26T10:37:49;92213.31;;;23.95;60.73
64602;BME280;68371;42.630;23.192;2023-06-26T10:40:21;92216.72;;;23.95;57.30
64602;BME280;68371;42.630;23.192;2023-06-26T10:42:48;92207.31;;;24.04;56.21
64602;BME280;68371;42.630;23.192;2023-06-26T10:45:16;92208.72;;;24.08;58.93
64602;BME280;68371;42.630;23.192;2023-06-26T10:47:47;92204.44;;;24.11;58.51
64602;BME280;68371;42.630;23.192;2023-06-26T10:50:18;92208.38;;;24.06;56.68
64602;BME280;68371;42.630;23.192;2023-06-26T10:53:07;92212.06;;;24.12;59.83
64602;BME280;68371;42.630;23.192;2023-06-26T10:55:34;92205.09;;;24.15;60.63
64602;BME280;68371;42.630;23.192;2023-06-26T10:58:01;92199.88;;;23.95;57.93
64602;BME280;68371;42.630;23.192;2023-06-26T11:00:28;92199.13;;;23.94;58.67
64602;BME280;68371;42.630;23.192;2023-06-26T11:02:55;92203.34;;;24.08;59.77
64602;BME280;68371;42.630;23.192;2023-06-26T11:05:26;92203.59;;;24.27;62.27
64602;BME280;68371;42.630;23.192;2023-06-26T11:08:07;92209.22;;;24.45;59.05
64602;BME280;68371;42.630;23.192;2023-06-26T11:10:51;92189.47;;;24.39;55.47
64602;BME280;68371;42.630;23.192;2023-06-26T11:13:19;92204.75;;;24.55;57.20
64602;BME280;68371;42.630;23.192;2023-06-26T11:15:46;92193.97;;;24.42;57.13
64602;BME280;68371;42.630;23.192;2023-06-26T11:18:13;92209.34;;;24.42;57.96
64602;BME280;68371;42.630;23.192;2023-06-26T11:20:41;92209.13;;;24.49;59.46
64602;BME280;68371;42.630;23.192;2023-06-26T11:23:09;92214.09;;;24.50;60.75
64602;BME280;68371;42.630;23.192;2023-06-26T11:25:37;92212.72;;;24.16;55.19
64602;BME280;68371;42.630;23.192;2023-06-26T11:28:05;92205.91;;;23.99;57.48
64602;BME280;68371;42.630;23.192;2023-06-26T11:30:32;92199.31;;;23.87;57.98
64602;BME280;68371;42.630;23.192;2023-06-26T11:33:05;92223.50;;;24.00;62.25
64602;BME280;68371;42.630;23.192;2023-06-26T11:35:33;92216.44;;;24.06;62.36
64602;BME280;68371;42.630;23.192;2023-06-26T11:38:02;92223.00;;;24.05;59.99
64602;BME280;68371;42.630;23.192;2023-06-26T11:40:32;92216.19;;;24.00;60.91
64602;BME280;68371;42.630;23.192;2023-06-26T11:43:00;92215.69;;;24.06;60.47
64602;BME280;68371;42.630;23.192;2023-06-26T11:45:28;92216.63;;;23.99;56.66
64602;BME280;68371;42.630;23.192;2023-06-26T11:47:55;92210.72;;;23.91;59.30
64602;BME280;68371;42.630;23.192;2023-06-26T11:50:23;92206.50;;;23.90;58.43
64602;BME280;68371;42.630;23.192;2023-06-26T11:52:53;92171.44;;;23.68;56.72
64602;BME280;68371;42.630;23.192;2023-06-26T11:55:21;92216.44;;;24.35;55.25
64602;BME280;68371;42.630;23.192;2023-06-26T11:57:50;92210.59;;;24.66;58.85
64602;BME280;68371;42.630;23.192;2023-06-26T12:00:17;92218.88;;;24.72;58.52
64602;BME280;68371;42.630;23.192;2023-06-26T12:02:45;92215.53;;;24.81;57.87
64602;BME280;68371;42.630;23.192;2023-06-26T12:05:13;92203.59;;;24.82;56.89
64602;BME280;68371;42.630;23.192;2023-06-26T12:07:41;92210.16;;;24.81;57.24
64602;BME280;68371;42.630;23.192;2023-06-26T12:10:09;92200.28;;;24.90;52.63
64602;BME280;68371;42.630;23.192;2023-06-26T12:12:37;92202.31;;;24.86;53.91
64602;BME280;68371;42.630;23.192;2023-06-26T12:15:07;92208.13;;;24.72;53.52
64602;BME280;68371;42.630;23.192;2023-06-26T12:17:37;92206.94;;;24.73;54.46
64602;BME280;68371;42.630;23.192;2023-06-26T12:20:05;92205.31;;;24.75;51.48
64602;BME280;68371;42.630;23.192;2023-06-26T12:22:35;92198.13;;;24.85;55.38
64602;BME280;68371;42.630;23.192;2023-06-26T12:25:03;92204.03;;;25.06;54.63
64602;BME280;68371;42.630;23.192;2023-06-26T12:27:30;92192.94;;;25.77;55.76
64602;BME280;68371;42.630;23.192;2023-06-26T12:29:57;92193.56;;;26.16;50.95
64602;BME280;68371;42.630;23.192;2023-06-26T12:32:25;92183.97;;;26.37;52.95
64602;BME280;68371;42.630;23.192;2023-06-26T12:34:52;92182.25;;;26.74;48.91
64602;BME280;68371;42.630;23.192;2023-06-26T12:37:20;92195.38;;;27.13;48.39
64602;BME280;68371;42.630;23.192;2023-06-26T12:39:48;92194.03;;;27.58;45.16
64602;BME280;68371;42.630;23.192;2023-06-26T12:42:15;92192.84;;;27.68;46.66
64602;BME280;68371;42.630;23.192;2023-06-26T12:44:42;92196.56;;;27.52;45.65
64602;BME280;68371;42.630;23.192;2023-06-26T12:47:09;92190.13;;;27.50;44.82
64602;BME280;68371;42.630;23.192;2023-06-26T12:49:41;92201.31;;;26.98;46.60
64602;BME280;68371;42.630;23.192;2023-06-26T12:52:09;92194.44;;;26.97;46.41
64602;BME280;68371;42.630;23.192;2023-06-26T12:54:38;92192.69;;;27.13;46.38